Terminal Aerodrome Forecast
Issued by NWS Tampa Bay Area, FL

Home | Current Version | Previous Version | Text Only | Print | Product List | Glossary On
Versions: 1 2 3 4 5 6 7 8 9 10 11 12
298
FTUS42 KTBW 201137
TAFSRQ
TAF
KSRQ 201137Z 2012/2112 06005KT P6SM FEW020 SCT250
     FM201800 12006KT P6SM VCTS SCT035CB
     FM210300 09006KT P6SM BKN150=

USA.gov is the U.S. government's official web portal to all federal, state and local government web resources and services.